»·PEaware :: AAL404 KLAX-KSFO

AAL404 :: KLAX-KSFO

FLIGHT INFORMATION

Flight Status: Arrived
Operator:
American Airlines
More flights by this operator :: More flights under this callsign
Pilot: Wadhah A. (6578)
Aircraft: EMBRAER ERJ-135/140
(E135)
More flights by this aircraft type
Origin: KLAX Los Angeles Intl
United States
Destination: KSFO San Francisco Intl
United States
More flights between these airports :: More routes between these airports
Route: VTU5 RZS BSR BSR2
File this flight plan on PilotEdge
Remarks: Traffic In Sight event
Altitude:
(Current/Filed)
30,000ft
Speed:
(Current/Filed)
480kts
Departed: 22-May-15 06:04 PM
Arrived: 22-May-15 07:00 PM
Distance/Time
Traveled:
293nm/0:56
Distance/Time
To Go:
Arrived

Flight Plot

Page will automatically refresh every two minutes.


Map Options




Map Legend


Flown Route
Filed Route
Departure Airport
Arrival Airport
Navaid (VOR, NDB)
Fix

Horizontal Profiles

Position Reports

Time Latitude Longitude Heading Altitude Ground
Speed
22-May-15 17:20 33.941143 -118.407418 81 133ft 0kts
22-May-15 17:21 33.941143 -118.407418 81 133ft 0kts
22-May-15 17:22 33.941143 -118.407418 81 133ft 0kts
22-May-15 17:23 33.941143 -118.407418 81 133ft 0kts
22-May-15 17:24 33.941143 -118.407418 81 133ft 0kts
22-May-15 17:25 33.941143 -118.407418 81 133ft 0kts
22-May-15 17:26 33.941143 -118.407418 81 133ft 0kts
22-May-15 17:27 33.941143 -118.407418 81 133ft 0kts
22-May-15 17:28 33.941143 -118.407418 81 133ft 0kts
22-May-15 17:29 33.941143 -118.407418 81 133ft 0kts
22-May-15 17:30 33.941143 -118.407418 81 133ft 0kts
22-May-15 17:31 33.941143 -118.407418 81 133ft 0kts
22-May-15 17:32 33.941143 -118.407418 81 133ft 0kts
22-May-15 17:33 33.941143 -118.407418 81 133ft 0kts
22-May-15 17:34 33.941143 -118.407418 81 133ft 0kts
22-May-15 17:35 33.941143 -118.407418 81 133ft 0kts
22-May-15 17:36 33.941143 -118.407418 81 133ft 0kts
22-May-15 17:37 33.941143 -118.407418 81 133ft 0kts
22-May-15 17:38 33.941143 -118.407418 81 133ft 0kts
22-May-15 17:39 33.941143 -118.407418 81 133ft 0kts
22-May-15 17:40 33.941143 -118.407418 81 133ft 0kts
22-May-15 17:41 33.941143 -118.407418 81 133ft 0kts
22-May-15 17:42 33.941143 -118.407418 81 133ft 0kts
22-May-15 17:43 33.941143 -118.407418 81 133ft 0kts
22-May-15 17:44 33.941143 -118.407418 81 133ft 0kts
22-May-15 17:45 33.941143 -118.407418 81 133ft 0kts
22-May-15 17:46 33.941143 -118.407418 81 133ft 0kts
22-May-15 17:47 33.941143 -118.407418 81 133ft 0kts
22-May-15 17:48 33.941143 -118.407418 81 133ft 0kts
22-May-15 17:49 33.941143 -118.407418 81 133ft 0kts
22-May-15 17:50 33.941298 -118.408032 167 133ft 0kts
22-May-15 17:51 33.941298 -118.408031 167 133ft 0kts
22-May-15 17:52 33.941298 -118.408031 167 133ft 0kts
22-May-15 17:53 33.938558 -118.407553 134 133ft 14kts
22-May-15 17:54 33.938410 -118.403553 83 133ft 1kts
22-May-15 17:55 33.938412 -118.403541 83 133ft 0kts
22-May-15 17:56 33.938754 -118.400223 83 133ft 25kts
22-May-15 17:57 33.939582 -118.392181 83 133ft 23kts
22-May-15 17:58 33.940413 -118.383953 83 133ft 26kts
22-May-15 17:59 33.940696 -118.380714 105 133ft 0kts
22-May-15 18:00 33.939652 -118.381997 262 133ft 51kts
22-May-15 18:01 33.935119 -118.429178 263 1597ft 188kts
22-May-15 18:02 33.929594 -118.495724 264 3616ft 198kts
22-May-15 18:03 33.925106 -118.552689 264 5017ft 250kts
22-May-15 18:04 33.918448 -118.640759 264 11314ft 294kts
22-May-15 18:05 33.910096 -118.749458 264 12998ft 339kts
22-May-15 18:06 33.912550 -118.862834 301 12998ft 352kts
22-May-15 18:07 33.989361 -118.932448 322 17969ft 355kts
22-May-15 18:08 34.072102 -119.004578 319 22060ft 381kts
22-May-15 18:09 34.144890 -119.102824 303 25617ft 388kts
22-May-15 18:10 34.207432 -119.210351 303 28604ft 406kts
22-May-15 18:11 34.272003 -119.327239 301 30095ft 441kts
22-May-15 18:12 34.338352 -119.450790 301 30074ft 440kts
22-May-15 18:13 34.404431 -119.573162 301 30035ft 426kts
22-May-15 18:14 34.469472 -119.693522 300 30041ft 431kts
22-May-15 18:15 34.547276 -119.804796 316 30050ft 443kts
22-May-15 18:16 34.635786 -119.904706 316 30059ft 441kts
22-May-15 18:17 34.725769 -120.006497 317 30077ft 445kts
22-May-15 18:18 34.816922 -120.107774 318 30084ft 446kts
22-May-15 18:19 34.907659 -120.205935 318 30096ft 436kts
22-May-15 18:20 34.996870 -120.303345 317 30100ft 429kts
22-May-15 18:21 35.085281 -120.401004 317 30100ft 429kts
22-May-15 18:22 35.172696 -120.498937 319 30097ft 429kts
22-May-15 18:23 35.261219 -120.597688 320 30099ft 432kts
22-May-15 18:24 35.350280 -120.695410 318 30096ft 430kts
22-May-15 18:25 35.439452 -120.791871 315 30063ft 427kts
22-May-15 18:26 35.529438 -120.892774 313 30045ft 455kts
22-May-15 18:27 35.621312 -120.998217 313 30038ft 464kts
22-May-15 18:28 35.714770 -121.104800 312 30035ft 454kts
22-May-15 18:29 35.802977 -121.204134 313 28130ft 417kts
22-May-15 18:30 35.886405 -121.298225 313 25376ft 399kts
22-May-15 18:31 35.964166 -121.387558 314 24084ft 373kts
22-May-15 18:32 36.037741 -121.473468 316 24111ft 361kts
22-May-15 18:33 36.113577 -121.558939 315 24126ft 378kts
22-May-15 18:34 36.189102 -121.641609 324 21781ft 368kts
22-May-15 18:35 36.272797 -121.710451 323 19227ft 357kts
22-May-15 18:36 36.352690 -121.778357 321 16794ft 347kts
22-May-15 18:37 36.429213 -121.849479 317 15549ft 340kts
22-May-15 18:38 36.516879 -121.886834 345 13388ft 338kts
22-May-15 18:39 36.605342 -121.911370 343 11344ft 327kts
22-May-15 18:40 36.686483 -121.937704 340 10364ft 286kts
22-May-15 18:41 36.763308 -121.961903 347 9994ft 289kts
22-May-15 18:42 36.841676 -121.980200 346 9985ft 288kts
22-May-15 18:43 36.920423 -122.001365 344 9981ft 290kts
22-May-15 18:44 36.998088 -122.024465 359 9967ft 289kts
22-May-15 18:45 37.074852 -122.041357 344 9982ft 284kts
22-May-15 18:46 37.151944 -122.066333 344 9983ft 289kts
22-May-15 18:47 37.228058 -122.083286 347 8670ft 273kts
22-May-15 18:48 37.300917 -122.101581 345 7152ft 259kts
22-May-15 18:49 37.370167 -122.122013 344 5572ft 255kts
22-May-15 18:50 37.434189 -122.142490 344 4165ft 221kts
22-May-15 18:51 37.494085 -122.161229 344 3710ft 218kts
22-May-15 18:52 37.543206 -122.197834 304 2422ft 212kts
22-May-15 18:53 37.569543 -122.258154 297 1709ft 207kts
22-May-15 18:54 37.591608 -122.310607 298 834ft 139kts
22-May-15 18:55 37.609371 -122.352784 298 171ft 133kts
22-May-15 18:56 37.618998 -122.377959 265 21ft 7kts
22-May-15 18:57 37.618940 -122.380048 278 21ft 17kts
22-May-15 18:58 37.618310 -122.381950 144 21ft 0kts
22-May-15 18:59 37.618310 -122.381950 144 21ft 0kts
22-May-15 19:00 37.618310 -122.381950 144 21ft 0kts
22-May-15 19:01 37.618310 -122.381950 144 21ft 0kts
22-May-15 19:02 37.618310 -122.381950 144 21ft 0kts
22-May-15 19:03 37.618310 -122.381950 144 21ft 0kts
22-May-15 19:04 37.618310 -122.381950 144 21ft 0kts

Navigation Log

Ident Type
Flight plan parsing failed, navigation log unavailable